Goldway — D5JC6 — position and weather

sailwx.info

Track history (hours):
 
Tides and Currents Weather Stations Pressure Air Temp Water Temp Dewpoint Dewpoint Depression Visibility Wind Speed Wind Dir Waves Ship Positions

Goldway

Last reported at 2017-Nov-18 23:52 UTC. Time now 2017-Nov-20 12:01 UTC.
Position N 38°02' W 122°07'.

Length 277 m; draft 11.4 m.

Type: Tanker. MMSI: 636017060.

Date/timePositionNaut miles runAvg speedWind from/ knotsBaromVisibWave heightAir tempDewpointWater temp
2017-Nov-18 23:52N 38°02' W 122°07'0 0.0
2017-Nov-18 23:22N 38°02' W 122°07'0 0.0
2017-Nov-18 22:59N 38°02' W 122°07'0 0.0
2017-Nov-18 22:27N 38°02' W 122°07'0 0.0
2017-Nov-18 21:37N 38°02' W 122°07'0 0.0
2017-Nov-18 21:17N 38°02' W 122°07'0 0.1
2017-Nov-18 20:54N 38°02' W 122°07'1 1.8
2017-Nov-18 20:31N 38°02' W 122°08'2 4.9
2017-Nov-18 20:01N 38°03' W 122°11'5 9.8
2017-Nov-18 19:31N 38°03' W 122°17'5 9.1
2017-Nov-18 19:00N 38°02' W 122°22'510.2
2017-Nov-18 18:30N 37°58' W 122°26'510.7
2017-Nov-18 18:00N 37°53' W 122°25'4 7.7
2017-Nov-18 17:31N 37°50' W 122°28'713.4
2017-Nov-18 17:00N 37°47' W 122°36'510.4
2017-Nov-18 16:30N 37°44' W 122°42'5 9.4
2017-Nov-18 16:00N 37°41' W 122°46'510.2
2017-Nov-18 15:30N 37°38' W 122°51'510.2
2017-Nov-18 15:01N 37°35' W 122°57'510.1
2017-Nov-18 14:30N 37°33' W 123°02'510.2
2017-Nov-18 14:01N 37°30' W 123°08'510.1
2017-Nov-18 13:30N 37°28' W 123°13'510.3
2017-Nov-18 13:00N 37°26' W 123°20'1 1.9
2017-Nov-18 12:29N 37°27' W 123°21'0 0.7
2017-Nov-18 12:01N 37°27' W 123°21'0 0.6
2017-Nov-18 11:31N 37°27' W 123°21'0 0.6
2017-Nov-18 11:01N 37°28' W 123°21'0 0.6
2017-Nov-18 10:16N 37°28' W 123°21'0 0.6
2017-Nov-18 09:55N 37°28' W 123°21'0 0.6
2017-Nov-18 09:31N 37°28' W 123°21'0 0.6
2017-Nov-18 08:59N 37°29' W 123°21'0 0.6
2017-Nov-18 08:31N 37°29' W 123°21'0 0.7
2017-Nov-18 08:00N 37°29' W 123°21'0 0.7
2017-Nov-18 07:31N 37°30' W 123°21'0 0.8
2017-Nov-18 07:01N 37°30' W 123°20'1 0.9
2017-Nov-18 06:20N 37°31' W 123°20'0 1.1
2017-Nov-18 06:00N 37°31' W 123°20'1 1.2
2017-Nov-18 04:49N 37°32' W 123°18'1 0.9
2017-Nov-18 03:49N 37°33' W 123°18'1 3.6
2017-Nov-18 03:29N 37°32' W 123°17'6 8.9
2017-Nov-18 02:51N 37°26' W 123°16'3 9.8
2017-Nov-18 02:30N 37°23' W 123°15'5 9.4
2017-Nov-18 02:00N 37°18' W 123°14'157 6.4
2017-Nov-17 01:31N 34°51' W 122°09'011.9
2017-Nov-17 01:30N 34°50' W 122°09'611.8
2017-Nov-17 01:01N 34°45' W 122°05'712.1
2017-Nov-17 00:23N 34°39' W 122°01'512.0
2017-Nov-17 00:00N 34°35' W 121°58'611.8
2017-Nov-16 23:30N 34°30' W 121°55'611.6
2017-Nov-16 23:00N 34°24' W 121°51'611.5
2017-Nov-16 22:30N 34°20' W 121°48'611.7
2017-Nov-16 22:00N 34°14' W 121°45'712.0
2017-Nov-16 21:26N 34°08' W 121°41'512.1
2017-Nov-16 21:00N 34°04' W 121°38'612.1
2017-Nov-16 20:30N 33°58' W 121°34'611.9
2017-Nov-16 20:00N 33°53' W 121°31'612.2
2017-Nov-16 19:30N 33°48' W 121°27'713.2
2017-Nov-16 19:01N 33°42' W 121°24'713.9
2017-Nov-16 18:30N 33°36' W 121°20'714.9
2017-Nov-16 18:00N 33°36' W 121°11'815.1
2017-Nov-16 17:31N 33°36' W 121°02'714.7
2017-Nov-16 17:00N 33°36' W 120°53'714.8
2017-Nov-16 16:31N 33°37' W 120°44'713.4
2017-Nov-16 16:00N 33°37' W 120°36'712.5
2017-Nov-16 15:29N 33°37' W 120°28'612.0
2017-Nov-16 15:00N 33°38' W 120°21'712.6
2017-Nov-16 14:29N 33°36' W 120°13'612.4
2017-Nov-16 14:00N 33°36' W 120°06'612.4
2017-Nov-16 13:30N 33°36' W 119°59'612.3
2017-Nov-16 13:00N 33°35' W 119°52'612.8
2017-Nov-16 12:30N 33°32' W 119°45'612.7
2017-Nov-16 12:00N 33°30' W 119°37'713.0
2017-Nov-16 11:30N 33°28' W 119°30'713.2
2017-Nov-16 11:00N 33°26' W 119°23'713.0
2017-Nov-16 10:30N 33°23' W 119°15'712.7
2017-Nov-16 09:58N 33°21' W 119°08'613.0
2017-Nov-16 09:29N 33°19' W 119°01'613.0
2017-Nov-16 09:00N 33°17' W 118°54'612.9
2017-Nov-16 08:30N 33°15' W 118°46'613.1
2017-Nov-16 08:00N 33°12' W 118°39'612.9
2017-Nov-16 07:30N 33°10' W 118°32'611.7
2017-Nov-16 07:00N 33°07' W 118°26'612.7
2017-Nov-16 06:30N 33°01' W 118°22'612.6
2017-Nov-16 06:00N 32°56' W 118°17'5 9.9
2017-Nov-16 05:30N 32°52' W 118°15'1 1.2
2017-Nov-16 05:00N 32°52' W 118°14'0 0.9
2017-Nov-16 04:30N 32°52' W 118°13'1 1.1
2017-Nov-16 04:00N 32°52' W 118°13'3 6.0
2017-Nov-16 03:30N 32°49' W 118°13'5 9.2
2017-Nov-16 03:00N 32°45' W 118°13'510.1
2017-Nov-16 02:30N 32°40' W 118°15'510.3
2017-Nov-16 02:00N 32°35' W 118°16'510.2
2017-Nov-16 01:30N 32°30' W 118°17'510.0
2017-Nov-16 01:00N 32°25' W 118°18'5 9.9
2017-Nov-16 00:30N 32°20' W 118°19'5 9.9
2017-Nov-16 00:00N 32°15' W 118°20'4 8.7
2017-Nov-15 23:30N 32°11' W 118°20'4 8.6
2017-Nov-15 23:00N 32°07' W 118°21'4 8.6
2017-Nov-15 22:30N 32°02' W 118°22'4 8.2
2017-Nov-15 22:00N 31°58' W 118°23'4 8.1
2017-Nov-15 21:30N 31°54' W 118°23'4 8.3
2017-Nov-15 21:00N 31°50' W 118°24'4 8.6
2017-Nov-15 20:30N 31°46' W 118°25'4 8.5
2017-Nov-15 20:00N 31°42' W 118°26'4 8.6
2017-Nov-15 19:30N 31°38' W 118°27'4 8.5
2017-Nov-15 19:00N 31°33' W 118°27'4 8.3
2017-Nov-15 18:30N 31°29' W 118°28'1 1.9
2017-Nov-15 18:00N 31°28' W 118°27'1 1.5
2017-Nov-15 17:30N 31°29' W 118°27'1 1.3
2017-Nov-15 17:00N 31°30' W 118°28'1 1.4
2017-Nov-15 16:30N 31°30' W 118°28'1 1.3
2017-Nov-15 16:00N 31°31' W 118°29'1 1.3
2017-Nov-15 15:30N 31°31' W 118°29'1 1.2
2017-Nov-15 15:00N 31°32' W 118°30'1 1.3
2017-Nov-15 14:30N 31°32' W 118°30'1 1.4
2017-Nov-15 14:00N 31°33' W 118°31'1 1.7
2017-Nov-15 13:30N 31°33' W 118°32'1 2.0
2017-Nov-15 13:01N 31°34' W 118°32'1 2.2
2017-Nov-15 12:30N 31°35' W 118°33'1 2.5
2017-Nov-15 12:00N 31°36' W 118°34'1 2.6
2017-Nov-15 11:30N 31°37' W 118°35'1 2.6
2017-Nov-15 11:00N 31°38' W 118°36'1 2.8
2017-Nov-15 10:30N 31°39' W 118°37'1 2.9
2017-Nov-15 10:00N 31°40' W 118°38'2 3.1
2017-Nov-15 09:30N 31°41' W 118°40'2 3.1
2017-Nov-15 08:59N 31°42' W 118°41'3 3.0
2017-Nov-15 08:07N 31°44' W 118°43'0 2.7
2017-Nov-15 07:59N 31°44' W 118°43'1 2.5
2017-Nov-15 07:25N 31°45' W 118°45'1 2.1
2017-Nov-15 07:00N 31°46' W 118°45'1 2.2
2017-Nov-15 06:30N 31°47' W 118°46'1 2.2
2017-Nov-15 05:59N 31°47' W 118°47'1 2.2
2017-Nov-15 05:29N 31°48' W 118°48'1 2.2
2017-Nov-15 05:00N 31°49' W 118°49'1 2.4
2017-Nov-15 04:29N 31°50' W 118°50'1 2.3
2017-Nov-15 04:00N 31°51' W 118°50'1 2.2
2017-Nov-15 03:30N 31°52' W 118°51'3 2.3
2017-Nov-15 02:04N 31°55' W 118°53'0 2.1
2017-Nov-15 01:56N 31°55' W 118°54'5 2.3
2017-Nov-14 23:52N 31°58' W 118°57'1 2.3
2017-Nov-14 23:30N 31°59' W 118°58'1 2.3
2017-Nov-14 23:00N 31°60' W 118°59'1 2.3
2017-Nov-14 22:30N 32°01' W 119°00'1 2.3
2017-Nov-14 22:00N 32°01' W 119°01'1 2.6
2017-Nov-14 21:27N 32°02' W 119°02'1 3.0
2017-Nov-14 21:00N 32°03' W 119°03'2 4.2
2017-Nov-14 20:30N 32°05' W 119°05'3 5.7
2017-Nov-14 20:00N 32°07' W 119°07'3 5.6
2017-Nov-14 19:30N 32°10' W 119°09'3 6.0
2017-Nov-14 19:00N 32°11' W 119°12'3 5.2
2017-Nov-14 18:30N 32°11' W 119°15'1 2.0
2017-Nov-14 18:00N 32°12' W 119°15'1 2.2
2017-Nov-14 17:30N 32°14' W 119°14'1 2.1
2017-Nov-14 16:58N 32°15' W 119°14'1 2.0
2017-Nov-14 16:30N 32°16' W 119°14'1 2.3
2017-Nov-14 15:58N 32°16' W 119°13'1511.0
2017-Nov-14 14:37N 32°22' W 118°57'212.0
2017-Nov-14 14:29N 32°23' W 118°55'612.6
2017-Nov-14 14:00N 32°25' W 118°49'612.9
2017-Nov-14 13:30N 32°28' W 118°42'612.7
2017-Nov-14 13:00N 32°31' W 118°35'612.5
2017-Nov-14 12:30N 32°33' W 118°28'612.5
2017-Nov-14 12:00N 32°36' W 118°21'612.8
2017-Nov-14 11:30N 32°38' W 118°14'510.9
2017-Nov-14 11:00N 32°43' W 118°12'612.7
2017-Nov-14 10:30N 32°50' W 118°13'510.8
2017-Nov-14 10:00N 32°55' W 118°15'1 1.2
2017-Nov-14 09:30N 32°55' W 118°15'2 3.7
2017-Nov-14 09:00N 32°55' W 118°13'3 6.8
2017-Nov-14 08:30N 32°54' W 118°09'0 0.8
2017-Nov-14 08:00N 32°55' W 118°09'0 0.5
2017-Nov-14 07:30N 32°55' W 118°10'0 0.4
2017-Nov-14 07:00N 32°55' W 118°10'0 0.5
2017-Nov-14 06:30N 32°55' W 118°10'0 0.5
2017-Nov-14 06:00N 32°55' W 118°10'0 0.5
2017-Nov-14 05:30N 32°55' W 118°10'0 0.5
2017-Nov-14 05:00N 32°56' W 118°11'0 0.5
2017-Nov-14 04:30N 32°56' W 118°11'0 0.5
2017-Nov-14 04:00N 32°56' W 118°11'0 0.6
2017-Nov-14 03:30N 32°56' W 118°11'1 1.2
2017-Nov-14 03:00N 32°56' W 118°12'1 1.3
2017-Nov-14 02:30N 32°57' W 118°13'1 1.2
2017-Nov-14 02:00N 32°57' W 118°13'0 0.9
2017-Nov-14 01:30N 32°57' W 118°14'0 0.6
2017-Nov-14 01:00N 32°57' W 118°14'2 4.6
2017-Nov-14 00:30N 32°57' W 118°11'5 9.5
2017-Nov-14 00:00N 32°56' W 118°06'5 9.6
2017-Nov-13 23:30N 32°55' W 118°00'5 9.6
2017-Nov-13 23:00N 32°55' W 117°54'5 9.3
2017-Nov-13 22:30N 32°54' W 117°49'1 2.4
2017-Nov-13 22:00N 32°53' W 117°48'14 0.7
2017-Nov-13 02:00N 32°52' W 118°04'0 0.7
2017-Nov-13 01:30N 32°52' W 118°04'0 0.5
2017-Nov-13 01:00N 32°52' W 118°05'3 5.4
2017-Nov-13 00:30N 32°53' W 118°02'510.0
2017-Nov-13 00:00N 32°55' W 117°56'5 9.4
2017-Nov-12 23:30N 32°57' W 117°51'5 9.1
2017-Nov-12 23:00N 32°59' W 117°46'1 2.8
2017-Nov-12 22:30N 32°59' W 117°45'1 1.1
2017-Nov-12 22:00N 32°58' W 117°45'1 1.2
2017-Nov-12 21:30N 32°58' W 117°46'0 1.0
2017-Nov-12 21:00N 32°58' W 117°46'1 1.1
2017-Nov-12 20:30N 32°58' W 117°47'0 1.0
2017-Nov-12 20:00N 32°58' W 117°48'0 0.9
2017-Nov-12 19:30N 32°57' W 117°48'0 0.9
2017-Nov-12 19:00N 32°57' W 117°49'0 1.0
2017-Nov-12 18:30N 32°57' W 117°49'0 1.0
2017-Nov-12 18:00N 32°57' W 117°50'0 0.9
2017-Nov-12 17:30N 32°57' W 117°50'0 1.0
2017-Nov-12 17:00N 32°57' W 117°51'1 1.0
2017-Nov-12 16:30N 32°57' W 117°51'1 1.0
2017-Nov-12 16:00N 32°56' W 117°52'1 1.1
2017-Nov-12 15:30N 32°56' W 117°52'1 1.0
2017-Nov-12 15:00N 32°56' W 117°53'1 1.1
2017-Nov-12 14:30N 32°56' W 117°53'1 1.2
2017-Nov-12 14:00N 32°55' W 117°54'1 1.1
2017-Nov-12 13:30N 32°55' W 117°55'0 0.9
2017-Nov-12 13:00N 32°55' W 117°55'0 0.9
2017-Nov-12 12:30N 32°54' W 117°55'0 0.8
2017-Nov-12 12:00N 32°54' W 117°56'0 0.7
2017-Nov-12 11:30N 32°54' W 117°56'0 0.7
2017-Nov-12 11:00N 32°53' W 117°56'0 0.6
2017-Nov-12 10:30N 32°53' W 117°56'0 0.5
2017-Nov-12 10:00N 32°53' W 117°57'0 0.4
2017-Nov-12 09:30N 32°53' W 117°57'0 0.5
2017-Nov-12 09:00N 32°53' W 117°57'0 0.4
2017-Nov-12 08:30N 32°53' W 117°57'0 0.4
2017-Nov-12 08:00N 32°52' W 117°57'0 0.4
2017-Nov-12 07:30N 32°52' W 117°58'0 0.4
2017-Nov-12 07:00N 32°52' W 117°58'0 0.4
2017-Nov-12 06:30N 32°52' W 117°58'0 0.4
2017-Nov-12 06:00N 32°52' W 117°58'0 0.6
2017-Nov-12 05:30N 32°52' W 117°59'0 0.5
2017-Nov-12 05:00N 32°52' W 117°59'0 0.5
2017-Nov-12 04:30N 32°52' W 117°59'0 0.6
2017-Nov-12 04:00N 32°52' W 117°60'0 0.5
2017-Nov-12 03:30N 32°52' W 117°60'0 0.7
2017-Nov-12 03:00N 32°53' W 118°00'0 0.7
2017-Nov-12 02:30N 32°53' W 118°01'0 0.7
2017-Nov-12 02:00N 32°53' W 118°01'0 0.7
2017-Nov-12 01:30N 32°53' W 118°01'0 0.5
2017-Nov-12 01:00N 32°53' W 118°02'2 3.6
2017-Nov-12 00:30N 32°54' W 117°60'5 9.3
2017-Nov-12 00:00N 32°55' W 117°54'510.7
2017-Nov-11 23:30N 32°57' W 117°48'3 6.3
2017-Nov-11 23:00N 32°58' W 117°45'1 1.5
2017-Nov-11 22:30N 32°58' W 117°46'1 1.2
2017-Nov-11 22:00N 32°57' W 117°46'1 1.1
2017-Nov-11 21:30N 32°57' W 117°47'1 1.2
2017-Nov-11 21:00N 32°57' W 117°47'1 1.2
2017-Nov-11 20:30N 32°57' W 117°48'1 1.1
2017-Nov-11 20:00N 32°56' W 117°49'0 0.9
2017-Nov-11 19:30N 32°56' W 117°49'0 0.8
2017-Nov-11 19:00N 32°56' W 117°49'0 0.8
2017-Nov-11 18:30N 32°56' W 117°50'0 0.8
2017-Nov-11 18:00N 32°55' W 117°50'0 0.8
2017-Nov-11 17:30N 32°55' W 117°51'0 0.9
2017-Nov-11 17:00N 32°55' W 117°51'0 0.9
2017-Nov-11 16:30N 32°55' W 117°52'0 0.9
2017-Nov-11 16:00N 32°54' W 117°52'0 1.0
2017-Nov-11 15:30N 32°54' W 117°53'0 0.9
2017-Nov-11 15:00N 32°54' W 117°53'0 0.9
2017-Nov-11 14:30N 32°54' W 117°53'0 0.8
2017-Nov-11 14:00N 32°53' W 117°54'0 0.8
2017-Nov-11 13:30N 32°53' W 117°54'0 0.7
2017-Nov-11 13:00N 32°53' W 117°55'0 0.7
2017-Nov-11 12:30N 32°53' W 117°55'0 0.6
2017-Nov-11 12:00N 32°53' W 117°55'0 0.5
2017-Nov-11 11:30N 32°53' W 117°56'0 0.5
2017-Nov-11 11:00N 32°52' W 117°56'0 0.4
2017-Nov-11 10:30N 32°52' W 117°56'0 0.3
2017-Nov-11 10:00N 32°52' W 117°56'0 0.3
2017-Nov-11 09:30N 32°52' W 117°56'0 0.3
2017-Nov-11 09:00N 32°52' W 117°56'0 0.4
2017-Nov-11 08:30N 32°52' W 117°57'0 0.3
2017-Nov-11 08:00N 32°52' W 117°57'0 0.4
2017-Nov-11 07:30N 32°52' W 117°57'0 0.6
2017-Nov-11 07:00N 32°52' W 117°57'0 0.5
2017-Nov-11 06:30N 32°52' W 117°58'0 0.6
2017-Nov-11 06:00N 32°52' W 117°58'0 0.7
2017-Nov-11 05:30N 32°52' W 117°58'0 0.7
2017-Nov-11 05:00N 32°53' W 117°59'0 0.8
2017-Nov-11 04:30N 32°53' W 117°59'0 1.0
2017-Nov-11 04:00N 32°53' W 117°60'0 1.0
2017-Nov-11 03:30N 32°53' W 118°00'1 1.2
2017-Nov-11 03:00N 32°53' W 118°01'1 1.2
2017-Nov-11 02:30N 32°53' W 118°02'0 1.0
2017-Nov-11 02:00N 32°54' W 118°02'0 0.9
2017-Nov-11 01:30N 32°54' W 118°03'2 3.4
2017-Nov-11 00:58N 32°52' W 118°03'510.2
2017-Nov-11 00:30N 32°48' W 118°05'612.6
2017-Nov-11 00:00N 32°42' W 118°09'611.2
2017-Nov-10 23:28N 32°39' W 118°15'612.5
2017-Nov-10 22:57N 32°38' W 118°23'612.8
2017-Nov-10 22:30N 32°37' W 118°30'713.0
2017-Nov-10 21:56N 32°36' W 118°38'613.0
2017-Nov-10 21:30N 32°35' W 118°45'713.0
2017-Nov-10 20:56N 32°34' W 118°54'7212.8
2017-Nov-10 15:18N 33°08' W 120°09'413.7
2017-Nov-10 15:00N 33°10' W 120°13'713.9
2017-Nov-10 14:30N 33°15' W 120°18'714.1
2017-Nov-10 14:00N 33°21' W 120°24'714.0
2017-Nov-10 13:30N 33°26' W 120°30'713.8
2017-Nov-10 13:00N 33°31' W 120°35'713.5
2017-Nov-10 12:31N 33°36' W 120°41'713.6
2017-Nov-10 12:00N 33°41' W 120°46'713.9
2017-Nov-10 11:31N 33°46' W 120°52'714.0
2017-Nov-10 11:01N 33°51' W 120°58'714.1
2017-Nov-10 10:30N 33°57' W 121°02'612.9
2017-Nov-10 10:00N 34°03' W 121°06'612.6
2017-Nov-10 09:30N 34°08' W 121°10'612.7
2017-Nov-10 09:00N 34°14' W 121°14'612.6
2017-Nov-10 08:30N 34°19' W 121°18'4 9.0
2017-Nov-10 08:00N 34°23' W 121°20'4 7.0
2017-Nov-10 07:30N 34°26' W 121°22'4 7.1
2017-Nov-10 07:00N 34°29' W 121°24'3 7.0
2017-Nov-10 06:30N 34°32' W 121°27'4 7.0
2017-Nov-10 06:00N 34°35' W 121°29'4 7.2
2017-Nov-10 05:30N 34°38' W 121°31'4 7.1
2017-Nov-10 05:00N 34°41' W 121°33'4 7.4
2017-Nov-10 04:30N 34°44' W 121°35'4 7.5
2017-Nov-10 04:00N 34°48' W 121°38'4 7.3
2017-Nov-10 03:30N 34°51' W 121°40'4 7.7
2017-Nov-10 02:58N 34°55' W 121°42'612.5
2017-Nov-10 02:30N 34°59' W 121°46'913.2
2017-Nov-10 01:49N 35°07' W 121°52'413.4
2017-Nov-10 01:30N 35°11' W 121°54'3113.3
2017-Nov-09 23:12N 35°38' W 122°13'313.2
2017-Nov-09 22:59N 35°40' W 122°15'612.9
2017-Nov-09 22:29N 35°45' W 122°19'613.1
2017-Nov-09 22:00N 35°51' W 122°23'613.0
2017-Nov-09 21:30N 35°57' W 122°27'612.6
2017-Nov-09 21:00N 36°02' W 122°31'612.3
2017-Nov-09 20:30N 36°07' W 122°35'612.5
2017-Nov-09 20:00N 36°13' W 122°39'612.5
2017-Nov-09 19:30N 36°18' W 122°42'612.6
2017-Nov-09 19:00N 36°24' W 122°44'713.1
2017-Nov-09 18:30N 36°31' W 122°44'612.9
2017-Nov-09 18:00N 36°37' W 122°43'612.8
2017-Nov-09 17:30N 36°44' W 122°43'2413.0
2017-Nov-09 15:38N 37°08' W 122°44'213.0
2017-Nov-09 15:30N 37°10' W 122°44'613.2
2017-Nov-09 15:00N 37°16' W 122°44'510.7
2017-Nov-09 14:30N 37°22' W 122°44'510.1
2017-Nov-09 14:00N 37°27' W 122°44'510.1
2017-Nov-09 13:30N 37°32' W 122°44'510.1
2017-Nov-09 13:00N 37°37' W 122°44'510.1
2017-Nov-09 12:30N 37°42' W 122°43'5 9.5
2017-Nov-09 12:00N 37°46' W 122°42'510.4
2017-Nov-09 11:31N 37°47' W 122°35'612.6
2017-Nov-09 11:01N 37°50' W 122°28'4 7.2
2017-Nov-09 10:31N 37°53' W 122°25'3 5.4
2017-Nov-09 10:01N 37°55' W 122°27'510.9
2017-Nov-09 09:30N 38°00' W 122°25'612.5
2017-Nov-09 09:00N 38°03' W 122°18'2 3.8
2017-Nov-09 08:30N 38°03' W 122°16'0 0.0
2017-Nov-09 08:01N 38°03' W 122°16'  
Track history (hours):
 
Tides and Currents Weather Stations Pressure Air Temp Water Temp Dewpoint Dewpoint Depression Visibility Wind Speed Wind Dir Waves Ship Positions

Goldway

Last reported at 2017-Nov-18 23:52 UTC. Time now 2017-Nov-20 12:01 UTC.
Position N 38°02' W 122°07'.

Length 277 m; draft 11.4 m.

Type: Tanker. MMSI: 636017060.

Date/timePositionNaut miles runAvg speedWind from/ knotsBaromVisibWave heightAir tempDewpointWater temp
2017-Nov-18 23:52N 38°02' W 122°07'0 0.0
2017-Nov-18 23:22N 38°02' W 122°07'0 0.0
2017-Nov-18 22:59N 38°02' W 122°07'0 0.0
2017-Nov-18 22:27N 38°02' W 122°07'0 0.0
2017-Nov-18 21:37N 38°02' W 122°07'0 0.0
2017-Nov-18 21:17N 38°02' W 122°07'0 0.1
2017-Nov-18 20:54N 38°02' W 122°07'1 1.8
2017-Nov-18 20:31N 38°02' W 122°08'2 4.9
2017-Nov-18 20:01N 38°03' W 122°11'5 9.8
2017-Nov-18 19:31N 38°03' W 122°17'5 9.1
2017-Nov-18 19:00N 38°02' W 122°22'510.2
2017-Nov-18 18:30N 37°58' W 122°26'510.7
2017-Nov-18 18:00N 37°53' W 122°25'4 7.7
2017-Nov-18 17:31N 37°50' W 122°28'713.4
2017-Nov-18 17:00N 37°47' W 122°36'510.4
2017-Nov-18 16:30N 37°44' W 122°42'5 9.4
2017-Nov-18 16:00N 37°41' W 122°46'510.2
2017-Nov-18 15:30N 37°38' W 122°51'510.2
2017-Nov-18 15:01N 37°35' W 122°57'510.1
2017-Nov-18 14:30N 37°33' W 123°02'510.2
2017-Nov-18 14:01N 37°30' W 123°08'510.1
2017-Nov-18 13:30N 37°28' W 123°13'510.3
2017-Nov-18 13:00N 37°26' W 123°20'1 1.9
2017-Nov-18 12:29N 37°27' W 123°21'0 0.7
2017-Nov-18 12:01N 37°27' W 123°21'0 0.6
2017-Nov-18 11:31N 37°27' W 123°21'0 0.6
2017-Nov-18 11:01N 37°28' W 123°21'0 0.6
2017-Nov-18 10:16N 37°28' W 123°21'0 0.6
2017-Nov-18 09:55N 37°28' W 123°21'0 0.6
2017-Nov-18 09:31N 37°28' W 123°21'0 0.6
2017-Nov-18 08:59N 37°29' W 123°21'0 0.6
2017-Nov-18 08:31N 37°29' W 123°21'0 0.7
2017-Nov-18 08:00N 37°29' W 123°21'0 0.7
2017-Nov-18 07:31N 37°30' W 123°21'0 0.8
2017-Nov-18 07:01N 37°30' W 123°20'1 0.9
2017-Nov-18 06:20N 37°31' W 123°20'0 1.1
2017-Nov-18 06:00N 37°31' W 123°20'1 1.2
2017-Nov-18 04:49N 37°32' W 123°18'1 0.9
2017-Nov-18 03:49N 37°33' W 123°18'1 3.6
2017-Nov-18 03:29N 37°32' W 123°17'6 8.9
2017-Nov-18 02:51N 37°26' W 123°16'3 9.8
2017-Nov-18 02:30N 37°23' W 123°15'5 9.4
2017-Nov-18 02:00N 37°18' W 123°14'157 6.4
2017-Nov-17 01:31N 34°51' W 122°09'011.9
2017-Nov-17 01:30N 34°50' W 122°09'611.8
2017-Nov-17 01:01N 34°45' W 122°05'712.1
2017-Nov-17 00:23N 34°39' W 122°01'512.0
2017-Nov-17 00:00N 34°35' W 121°58'611.8
2017-Nov-16 23:30N 34°30' W 121°55'611.6
2017-Nov-16 23:00N 34°24' W 121°51'611.5
2017-Nov-16 22:30N 34°20' W 121°48'611.7
2017-Nov-16 22:00N 34°14' W 121°45'712.0
2017-Nov-16 21:26N 34°08' W 121°41'512.1
2017-Nov-16 21:00N 34°04' W 121°38'612.1
2017-Nov-16 20:30N 33°58' W 121°34'611.9
2017-Nov-16 20:00N 33°53' W 121°31'612.2
2017-Nov-16 19:30N 33°48' W 121°27'713.2
2017-Nov-16 19:01N 33°42' W 121°24'713.9
2017-Nov-16 18:30N 33°36' W 121°20'714.9
2017-Nov-16 18:00N 33°36' W 121°11'815.1
2017-Nov-16 17:31N 33°36' W 121°02'714.7
2017-Nov-16 17:00N 33°36' W 120°53'714.8
2017-Nov-16 16:31N 33°37' W 120°44'713.4
2017-Nov-16 16:00N 33°37' W 120°36'712.5
2017-Nov-16 15:29N 33°37' W 120°28'612.0
2017-Nov-16 15:00N 33°38' W 120°21'712.6
2017-Nov-16 14:29N 33°36' W 120°13'612.4
2017-Nov-16 14:00N 33°36' W 120°06'612.4
2017-Nov-16 13:30N 33°36' W 119°59'612.3
2017-Nov-16 13:00N 33°35' W 119°52'612.8
2017-Nov-16 12:30N 33°32' W 119°45'612.7
2017-Nov-16 12:00N 33°30' W 119°37'713.0
2017-Nov-16 11:30N 33°28' W 119°30'713.2
2017-Nov-16 11:00N 33°26' W 119°23'713.0
2017-Nov-16 10:30N 33°23' W 119°15'712.7
2017-Nov-16 09:58N 33°21' W 119°08'613.0
2017-Nov-16 09:29N 33°19' W 119°01'613.0
2017-Nov-16 09:00N 33°17' W 118°54'612.9
2017-Nov-16 08:30N 33°15' W 118°46'613.1
2017-Nov-16 08:00N 33°12' W 118°39'612.9
2017-Nov-16 07:30N 33°10' W 118°32'611.7
2017-Nov-16 07:00N 33°07' W 118°26'612.7
2017-Nov-16 06:30N 33°01' W 118°22'612.6
2017-Nov-16 06:00N 32°56' W 118°17'5 9.9
2017-Nov-16 05:30N 32°52' W 118°15'1 1.2
2017-Nov-16 05:00N 32°52' W 118°14'0 0.9
2017-Nov-16 04:30N 32°52' W 118°13'1 1.1
2017-Nov-16 04:00N 32°52' W 118°13'3 6.0
2017-Nov-16 03:30N 32°49' W 118°13'5 9.2
2017-Nov-16 03:00N 32°45' W 118°13'510.1
2017-Nov-16 02:30N 32°40' W 118°15'510.3
2017-Nov-16 02:00N 32°35' W 118°16'510.2
2017-Nov-16 01:30N 32°30' W 118°17'510.0
2017-Nov-16 01:00N 32°25' W 118°18'5 9.9
2017-Nov-16 00:30N 32°20' W 118°19'5 9.9
2017-Nov-16 00:00N 32°15' W 118°20'4 8.7
2017-Nov-15 23:30N 32°11' W 118°20'4 8.6
2017-Nov-15 23:00N 32°07' W 118°21'4 8.6
2017-Nov-15 22:30N 32°02' W 118°22'4 8.2
2017-Nov-15 22:00N 31°58' W 118°23'4 8.1
2017-Nov-15 21:30N 31°54' W 118°23'4 8.3
2017-Nov-15 21:00N 31°50' W 118°24'4 8.6
2017-Nov-15 20:30N 31°46' W 118°25'4 8.5
2017-Nov-15 20:00N 31°42' W 118°26'4 8.6
2017-Nov-15 19:30N 31°38' W 118°27'4 8.5
2017-Nov-15 19:00N 31°33' W 118°27'4 8.3
2017-Nov-15 18:30N 31°29' W 118°28'1 1.9
2017-Nov-15 18:00N 31°28' W 118°27'1 1.5
2017-Nov-15 17:30N 31°29' W 118°27'1 1.3
2017-Nov-15 17:00N 31°30' W 118°28'1 1.4
2017-Nov-15 16:30N 31°30' W 118°28'1 1.3
2017-Nov-15 16:00N 31°31' W 118°29'1 1.3
2017-Nov-15 15:30N 31°31' W 118°29'1 1.2
2017-Nov-15 15:00N 31°32' W 118°30'1 1.3
2017-Nov-15 14:30N 31°32' W 118°30'1 1.4
2017-Nov-15 14:00N 31°33' W 118°31'1 1.7
2017-Nov-15 13:30N 31°33' W 118°32'1 2.0
2017-Nov-15 13:01N 31°34' W 118°32'1 2.2
2017-Nov-15 12:30N 31°35' W 118°33'1 2.5
2017-Nov-15 12:00N 31°36' W 118°34'1 2.6
2017-Nov-15 11:30N 31°37' W 118°35'1 2.6
2017-Nov-15 11:00N 31°38' W 118°36'1 2.8
2017-Nov-15 10:30N 31°39' W 118°37'1 2.9
2017-Nov-15 10:00N 31°40' W 118°38'2 3.1
2017-Nov-15 09:30N 31°41' W 118°40'2 3.1
2017-Nov-15 08:59N 31°42' W 118°41'3 3.0
2017-Nov-15 08:07N 31°44' W 118°43'0 2.7
2017-Nov-15 07:59N 31°44' W 118°43'1 2.5
2017-Nov-15 07:25N 31°45' W 118°45'1 2.1
2017-Nov-15 07:00N 31°46' W 118°45'1 2.2
2017-Nov-15 06:30N 31°47' W 118°46'1 2.2
2017-Nov-15 05:59N 31°47' W 118°47'1 2.2
2017-Nov-15 05:29N 31°48' W 118°48'1 2.2
2017-Nov-15 05:00N 31°49' W 118°49'1 2.4
2017-Nov-15 04:29N 31°50' W 118°50'1 2.3
2017-Nov-15 04:00N 31°51' W 118°50'1 2.2
2017-Nov-15 03:30N 31°52' W 118°51'3 2.3
2017-Nov-15 02:04N 31°55' W 118°53'0 2.1
2017-Nov-15 01:56N 31°55' W 118°54'5 2.3
2017-Nov-14 23:52N 31°58' W 118°57'1 2.3
2017-Nov-14 23:30N 31°59' W 118°58'1 2.3
2017-Nov-14 23:00N 31°60' W 118°59'1 2.3
2017-Nov-14 22:30N 32°01' W 119°00'1 2.3
2017-Nov-14 22:00N 32°01' W 119°01'1 2.6
2017-Nov-14 21:27N 32°02' W 119°02'1 3.0
2017-Nov-14 21:00N 32°03' W 119°03'2 4.2
2017-Nov-14 20:30N 32°05' W 119°05'3 5.7
2017-Nov-14 20:00N 32°07' W 119°07'3 5.6
2017-Nov-14 19:30N 32°10' W 119°09'3 6.0
2017-Nov-14 19:00N 32°11' W 119°12'3 5.2
2017-Nov-14 18:30N 32°11' W 119°15'1 2.0
2017-Nov-14 18:00N 32°12' W 119°15'1 2.2
2017-Nov-14 17:30N 32°14' W 119°14'1 2.1
2017-Nov-14 16:58N 32°15' W 119°14'1 2.0
2017-Nov-14 16:30N 32°16' W 119°14'1 2.3
2017-Nov-14 15:58N 32°16' W 119°13'1511.0
2017-Nov-14 14:37N 32°22' W 118°57'212.0
2017-Nov-14 14:29N 32°23' W 118°55'612.6
2017-Nov-14 14:00N 32°25' W 118°49'612.9
2017-Nov-14 13:30N 32°28' W 118°42'612.7
2017-Nov-14 13:00N 32°31' W 118°35'612.5
2017-Nov-14 12:30N 32°33' W 118°28'612.5
2017-Nov-14 12:00N 32°36' W 118°21'612.8
2017-Nov-14 11:30N 32°38' W 118°14'510.9
2017-Nov-14 11:00N 32°43' W 118°12'612.7
2017-Nov-14 10:30N 32°50' W 118°13'510.8
2017-Nov-14 10:00N 32°55' W 118°15'1 1.2
2017-Nov-14 09:30N 32°55' W 118°15'2 3.7
2017-Nov-14 09:00N 32°55' W 118°13'3 6.8
2017-Nov-14 08:30N 32°54' W 118°09'0 0.8
2017-Nov-14 08:00N 32°55' W 118°09'0 0.5
2017-Nov-14 07:30N 32°55' W 118°10'0 0.4
2017-Nov-14 07:00N 32°55' W 118°10'0 0.5
2017-Nov-14 06:30N 32°55' W 118°10'0 0.5
2017-Nov-14 06:00N 32°55' W 118°10'0 0.5
2017-Nov-14 05:30N 32°55' W 118°10'0 0.5
2017-Nov-14 05:00N 32°56' W 118°11'0 0.5
2017-Nov-14 04:30N 32°56' W 118°11'0 0.5
2017-Nov-14 04:00N 32°56' W 118°11'0 0.6
2017-Nov-14 03:30N 32°56' W 118°11'1 1.2
2017-Nov-14 03:00N 32°56' W 118°12'1 1.3
2017-Nov-14 02:30N 32°57' W 118°13'1 1.2
2017-Nov-14 02:00N 32°57' W 118°13'0 0.9
2017-Nov-14 01:30N 32°57' W 118°14'0 0.6
2017-Nov-14 01:00N 32°57' W 118°14'2 4.6
2017-Nov-14 00:30N 32°57' W 118°11'5 9.5
2017-Nov-14 00:00N 32°56' W 118°06'5 9.6
2017-Nov-13 23:30N 32°55' W 118°00'5 9.6
2017-Nov-13 23:00N 32°55' W 117°54'5 9.3
2017-Nov-13 22:30N 32°54' W 117°49'1 2.4
2017-Nov-13 22:00N 32°53' W 117°48'14 0.7
2017-Nov-13 02:00N 32°52' W 118°04'0 0.7
2017-Nov-13 01:30N 32°52' W 118°04'0 0.5
2017-Nov-13 01:00N 32°52' W 118°05'3 5.4
2017-Nov-13 00:30N 32°53' W 118°02'510.0
2017-Nov-13 00:00N 32°55' W 117°56'5 9.4
2017-Nov-12 23:30N 32°57' W 117°51'5 9.1
2017-Nov-12 23:00N 32°59' W 117°46'1 2.8
2017-Nov-12 22:30N 32°59' W 117°45'1 1.1
2017-Nov-12 22:00N 32°58' W 117°45'1 1.2
2017-Nov-12 21:30N 32°58' W 117°46'0 1.0
2017-Nov-12 21:00N 32°58' W 117°46'1 1.1
2017-Nov-12 20:30N 32°58' W 117°47'0 1.0
2017-Nov-12 20:00N 32°58' W 117°48'0 0.9
2017-Nov-12 19:30N 32°57' W 117°48'0 0.9
2017-Nov-12 19:00N 32°57' W 117°49'0 1.0
2017-Nov-12 18:30N 32°57' W 117°49'0 1.0
2017-Nov-12 18:00N 32°57' W 117°50'0 0.9
2017-Nov-12 17:30N 32°57' W 117°50'0 1.0
2017-Nov-12 17:00N 32°57' W 117°51'1 1.0
2017-Nov-12 16:30N 32°57' W 117°51'1 1.0
2017-Nov-12 16:00N 32°56' W 117°52'1 1.1
2017-Nov-12 15:30N 32°56' W 117°52'1 1.0
2017-Nov-12 15:00N 32°56' W 117°53'1 1.1
2017-Nov-12 14:30N 32°56' W 117°53'1 1.2
2017-Nov-12 14:00N 32°55' W 117°54'1 1.1
2017-Nov-12 13:30N 32°55' W 117°55'0 0.9
2017-Nov-12 13:00N 32°55' W 117°55'0 0.9
2017-Nov-12 12:30N 32°54' W 117°55'0 0.8
2017-Nov-12 12:00N 32°54' W 117°56'0 0.7
2017-Nov-12 11:30N 32°54' W 117°56'0 0.7
2017-Nov-12 11:00N 32°53' W 117°56'0 0.6
2017-Nov-12 10:30N 32°53' W 117°56'0 0.5
2017-Nov-12 10:00N 32°53' W 117°57'0 0.4
2017-Nov-12 09:30N 32°53' W 117°57'0 0.5
2017-Nov-12 09:00N 32°53' W 117°57'0 0.4
2017-Nov-12 08:30N 32°53' W 117°57'0 0.4
2017-Nov-12 08:00N 32°52' W 117°57'0 0.4
2017-Nov-12 07:30N 32°52' W 117°58'0 0.4
2017-Nov-12 07:00N 32°52' W 117°58'0 0.4
2017-Nov-12 06:30N 32°52' W 117°58'0 0.4
2017-Nov-12 06:00N 32°52' W 117°58'0 0.6
2017-Nov-12 05:30N 32°52' W 117°59'0 0.5
2017-Nov-12 05:00N 32°52' W 117°59'0 0.5
2017-Nov-12 04:30N 32°52' W 117°59'0 0.6
2017-Nov-12 04:00N 32°52' W 117°60'0 0.5
2017-Nov-12 03:30N 32°52' W 117°60'0 0.7
2017-Nov-12 03:00N 32°53' W 118°00'0 0.7
2017-Nov-12 02:30N 32°53' W 118°01'0 0.7
2017-Nov-12 02:00N 32°53' W 118°01'0 0.7
2017-Nov-12 01:30N 32°53' W 118°01'0 0.5
2017-Nov-12 01:00N 32°53' W 118°02'2 3.6
2017-Nov-12 00:30N 32°54' W 117°60'5 9.3
2017-Nov-12 00:00N 32°55' W 117°54'510.7
2017-Nov-11 23:30N 32°57' W 117°48'3 6.3
2017-Nov-11 23:00N 32°58' W 117°45'1 1.5
2017-Nov-11 22:30N 32°58' W 117°46'1 1.2
2017-Nov-11 22:00N 32°57' W 117°46'1 1.1
2017-Nov-11 21:30N 32°57' W 117°47'1 1.2
2017-Nov-11 21:00N 32°57' W 117°47'1 1.2
2017-Nov-11 20:30N 32°57' W 117°48'1 1.1
2017-Nov-11 20:00N 32°56' W 117°49'0 0.9
2017-Nov-11 19:30N 32°56' W 117°49'0 0.8
2017-Nov-11 19:00N 32°56' W 117°49'0 0.8
2017-Nov-11 18:30N 32°56' W 117°50'0 0.8
2017-Nov-11 18:00N 32°55' W 117°50'0 0.8
2017-Nov-11 17:30N 32°55' W 117°51'0 0.9
2017-Nov-11 17:00N 32°55' W 117°51'0 0.9
2017-Nov-11 16:30N 32°55' W 117°52'0 0.9
2017-Nov-11 16:00N 32°54' W 117°52'0 1.0
2017-Nov-11 15:30N 32°54' W 117°53'0 0.9
2017-Nov-11 15:00N 32°54' W 117°53'0 0.9
2017-Nov-11 14:30N 32°54' W 117°53'0 0.8
2017-Nov-11 14:00N 32°53' W 117°54'0 0.8
2017-Nov-11 13:30N 32°53' W 117°54'0 0.7
2017-Nov-11 13:00N 32°53' W 117°55'0 0.7
2017-Nov-11 12:30N 32°53' W 117°55'0 0.6
2017-Nov-11 12:00N 32°53' W 117°55'0 0.5
2017-Nov-11 11:30N 32°53' W 117°56'0 0.5
2017-Nov-11 11:00N 32°52' W 117°56'0 0.4
2017-Nov-11 10:30N 32°52' W 117°56'0 0.3
2017-Nov-11 10:00N 32°52' W 117°56'0 0.3
2017-Nov-11 09:30N 32°52' W 117°56'0 0.3
2017-Nov-11 09:00N 32°52' W 117°56'0 0.4
2017-Nov-11 08:30N 32°52' W 117°57'0 0.3
2017-Nov-11 08:00N 32°52' W 117°57'0 0.4
2017-Nov-11 07:30N 32°52' W 117°57'0 0.6
2017-Nov-11 07:00N 32°52' W 117°57'0 0.5
2017-Nov-11 06:30N 32°52' W 117°58'0 0.6
2017-Nov-11 06:00N 32°52' W 117°58'0 0.7
2017-Nov-11 05:30N 32°52' W 117°58'0 0.7
2017-Nov-11 05:00N 32°53' W 117°59'0 0.8
2017-Nov-11 04:30N 32°53' W 117°59'0 1.0
2017-Nov-11 04:00N 32°53' W 117°60'0 1.0
2017-Nov-11 03:30N 32°53' W 118°00'1 1.2
2017-Nov-11 03:00N 32°53' W 118°01'1 1.2
2017-Nov-11 02:30N 32°53' W 118°02'0 1.0
2017-Nov-11 02:00N 32°54' W 118°02'0 0.9
2017-Nov-11 01:30N 32°54' W 118°03'2 3.4
2017-Nov-11 00:58N 32°52' W 118°03'510.2
2017-Nov-11 00:30N 32°48' W 118°05'612.6
2017-Nov-11 00:00N 32°42' W 118°09'611.2
2017-Nov-10 23:28N 32°39' W 118°15'612.5
2017-Nov-10 22:57N 32°38' W 118°23'612.8
2017-Nov-10 22:30N 32°37' W 118°30'713.0
2017-Nov-10 21:56N 32°36' W 118°38'613.0
2017-Nov-10 21:30N 32°35' W 118°45'713.0
2017-Nov-10 20:56N 32°34' W 118°54'7212.8
2017-Nov-10 15:18N 33°08' W 120°09'413.7
2017-Nov-10 15:00N 33°10' W 120°13'713.9
2017-Nov-10 14:30N 33°15' W 120°18'714.1
2017-Nov-10 14:00N 33°21' W 120°24'714.0
2017-Nov-10 13:30N 33°26' W 120°30'713.8
2017-Nov-10 13:00N 33°31' W 120°35'713.5
2017-Nov-10 12:31N 33°36' W 120°41'713.6
2017-Nov-10 12:00N 33°41' W 120°46'713.9
2017-Nov-10 11:31N 33°46' W 120°52'714.0
2017-Nov-10 11:01N 33°51' W 120°58'714.1
2017-Nov-10 10:30N 33°57' W 121°02'612.9
2017-Nov-10 10:00N 34°03' W 121°06'612.6
2017-Nov-10 09:30N 34°08' W 121°10'612.7
2017-Nov-10 09:00N 34°14' W 121°14'612.6
2017-Nov-10 08:30N 34°19' W 121°18'4 9.0
2017-Nov-10 08:00N 34°23' W 121°20'4 7.0
2017-Nov-10 07:30N 34°26' W 121°22'4 7.1
2017-Nov-10 07:00N 34°29' W 121°24'3 7.0
2017-Nov-10 06:30N 34°32' W 121°27'4 7.0
2017-Nov-10 06:00N 34°35' W 121°29'4 7.2
2017-Nov-10 05:30N 34°38' W 121°31'4 7.1
2017-Nov-10 05:00N 34°41' W 121°33'4 7.4
2017-Nov-10 04:30N 34°44' W 121°35'4 7.5
2017-Nov-10 04:00N 34°48' W 121°38'4 7.3
2017-Nov-10 03:30N 34°51' W 121°40'4 7.7
2017-Nov-10 02:58N 34°55' W 121°42'612.5
2017-Nov-10 02:30N 34°59' W 121°46'913.2
2017-Nov-10 01:49N 35°07' W 121°52'413.4
2017-Nov-10 01:30N 35°11' W 121°54'3113.3
2017-Nov-09 23:12N 35°38' W 122°13'313.2
2017-Nov-09 22:59N 35°40' W 122°15'612.9
2017-Nov-09 22:29N 35°45' W 122°19'613.1
2017-Nov-09 22:00N 35°51' W 122°23'613.0
2017-Nov-09 21:30N 35°57' W 122°27'612.6
2017-Nov-09 21:00N 36°02' W 122°31'612.3
2017-Nov-09 20:30N 36°07' W 122°35'612.5
2017-Nov-09 20:00N 36°13' W 122°39'612.5
2017-Nov-09 19:30N 36°18' W 122°42'612.6
2017-Nov-09 19:00N 36°24' W 122°44'713.1
2017-Nov-09 18:30N 36°31' W 122°44'612.9
2017-Nov-09 18:00N 36°37' W 122°43'612.8
2017-Nov-09 17:30N 36°44' W 122°43'2413.0
2017-Nov-09 15:38N 37°08' W 122°44'213.0
2017-Nov-09 15:30N 37°10' W 122°44'613.2
2017-Nov-09 15:00N 37°16' W 122°44'510.7
2017-Nov-09 14:30N 37°22' W 122°44'510.1
2017-Nov-09 14:00N 37°27' W 122°44'510.1
2017-Nov-09 13:30N 37°32' W 122°44'510.1
2017-Nov-09 13:00N 37°37' W 122°44'510.1
2017-Nov-09 12:30N 37°42' W 122°43'5 9.5
2017-Nov-09 12:00N 37°46' W 122°42'510.4
2017-Nov-09 11:31N 37°47' W 122°35'612.6
2017-Nov-09 11:01N 37°50' W 122°28'4 7.2
2017-Nov-09 10:31N 37°53' W 122°25'3 5.4
2017-Nov-09 10:01N 37°55' W 122°27'510.9
2017-Nov-09 09:30N 38°00' W 122°25'612.5
2017-Nov-09 09:00N 38°03' W 122°18'2 3.8
2017-Nov-09 08:30N 38°03' W 122°16'0 0.0
2017-Nov-09 08:01N 38°03' W 122°16'  

Dump ship's entire track history